Terminal Aerodrome Forecast
Issued by NWS

Home | Current Version | Previous Version | Graphics & Text | Print | Product List | Glossary On
Versions: 1 2 3 4 5 6 7 8 9 10 11 12 13 14 15 16 17
000
FTUS43 KGRB 060520
TAFRHI
TAF
KRHI 060520Z 0606/0706 14008KT 6SM BR OVC008 WS015/19035KT
      TEMPO 0606/0608 SCT008 BKN100
     FM061100 17009KT 4SM BR OVC004
      TEMPO 0611/0615 2SM -FZDZ BR
     FM061500 19010G17KT 5SM -SHSN BKN012 OVC020
      TEMPO 0616/0620 1 1/2SM -SHSN BKN008
     FM062000 24013G23KT 6SM -SHSN BKN020 OVC035=

USA.gov is the U.S. government's official web portal to all federal, state and local government web resources and services.